Hovedside
METAR-TAF:

METAR-TAF

Lufthavner :

Såtenäs, Sverige

breddegrad: 58-26N, lengdegrad: 012-42E, høyde over havet: 54 m

Gjeldene værobservasjon

Denne rapporten ble laget for 28 minutter siden, klokken 03:50 UTC
Vind 14 kt fra Nord-nordvest
Temperatur 5°C
Luftfuktighet 60%
Trykk 1006 hPa
Sikt 10 km eller mer

METAR: ESIB 240350Z AUTO 33014KT 9999 NCD 05/M02 Q1006

Tid: 06:18 (04:18 UTC)

Varsel

Denne rapporten ble laget for 16 timer og 48 minutter siden, klokken 11:30 UTC
Varsel gyldig fra 23. klokken 12 UTC til 23. klokken 15 UTC
Vind 15 kt fra Nordvest med vindkast opp mot 25 kt
Sikt 10 km eller mer
Få skyer i en høyde av 3300 ft
Sannsynlighet 30%
fra 23. klokken 13 UTC til 23. klokken 15 UTC
Brutte skyer i en høyde av 4000 ft, Bygeskyer.
lette regnbyger

TAF: ESIB 231130Z 2312/2315 32015G25KT 9999 FEW033 PROB30 2313/2315 -SHRA BKN040CB RMK MIL

Værobservasjoner og værvarsel for over 4000 flyplasser (METAR- og TAF-rapporter).

Tilgjengelige stasjoner er representert av de røde og gule prikkene på kartet.

Hold musepekeren over prikken for å se navnet på stasjonen.

Klikk så for å se værobservasjoner og -varsler.

For å forandre kartet kan du klikke på den grønne knappen med svart kryss for å zoome inn, på den grønne knappen med strek for å zoome ut, eller på de grønne pilene for å se tilstøtende kart.


METAR-TAF: